createdAt,value
2019-06-07T00:02:10.682Z,73.80
2019-06-07T00:04:37.527Z,73.45
2019-06-07T00:07:04.209Z,72.76
2019-06-07T00:09:30.930Z,73.04
2019-06-07T00:11:57.616Z,73.02
2019-06-07T00:14:24.324Z,72.94
2019-06-07T00:16:51.044Z,73.43
2019-06-07T00:19:18.987Z,73.35
2019-06-07T00:22:15.916Z,73.62
2019-06-07T00:24:16.876Z,73.73
2019-06-07T00:26:57.650Z,73.35
2019-06-07T00:29:15.364Z,74.31
2019-06-07T00:31:41.034Z,75.62
2019-06-07T00:34:10.310Z,75.33
2019-06-07T00:36:36.351Z,74.82
2019-06-07T00:39:05.309Z,74.95
2019-06-07T00:41:32.002Z,75.88
2019-06-07T00:43:59.073Z,76.21
2019-06-07T00:46:25.766Z,75.41
2019-06-07T00:48:52.520Z,74.89
2019-06-07T00:51:21.273Z,74.68
2019-06-07T00:53:48.099Z,74.65
2019-06-07T00:56:16.316Z,74.11
2019-06-07T00:58:43.107Z,74.71
2019-06-07T01:01:09.823Z,74.49
2019-06-07T01:03:36.536Z,74.24
2019-06-07T01:06:03.271Z,73.76
2019-06-07T01:08:30.355Z,73.53
2019-06-07T01:10:57.170Z,73.96
2019-06-07T01:13:26.643Z,74.08
2019-06-07T01:15:52.505Z,73.69
2019-06-07T01:18:37.373Z,74.17
2019-06-07T01:20:47.781Z,74.94
2019-06-07T01:23:54.309Z,75.08
2019-06-07T01:25:43.485Z,75.20
2019-06-07T01:28:10.219Z,75.40
2019-06-07T01:30:36.919Z,75.41
2019-06-07T01:33:03.641Z,75.11
2019-06-07T01:35:30.346Z,74.97
2019-06-07T01:37:57.049Z,74.39
2019-06-07T01:40:29.815Z,74.17
2019-06-07T01:42:52.447Z,73.58
2019-06-07T01:45:19.551Z,74.15
2019-06-07T01:47:46.880Z,74.38
2019-06-07T01:50:13.612Z,74.51
2019-06-07T01:52:40.303Z,74.28
2019-06-07T01:55:07.437Z,74.14
2019-06-07T01:57:47.715Z,73.98
2019-06-07T02:00:04.514Z,73.88
2019-06-07T02:02:31.904Z,73.89
2019-06-07T02:04:59.214Z,73.48
2019-06-07T02:07:30.350Z,73.31
2019-06-07T02:09:54.519Z,73.55
2019-06-07T02:12:27.948Z,74.03
2019-06-07T02:14:49.956Z,73.95
2019-06-07T02:17:17.160Z,74.26
2019-06-07T02:19:43.866Z,74.51
2019-06-07T02:22:10.567Z,74.51
2019-06-07T02:24:37.279Z,74.67
2019-06-07T02:27:03.992Z,74.36
2019-06-07T02:29:33.032Z,74.95
2019-06-07T02:31:59.300Z,75.07
2019-06-07T02:34:28.105Z,75.49
2019-06-07T02:36:54.604Z,75.94
2019-06-07T02:39:25.247Z,75.16
2019-06-07T02:41:49.924Z,74.93
2019-06-07T02:44:16.610Z,74.42
2019-06-07T02:46:48.926Z,74.65
2019-06-07T02:49:12.012Z,74.63
2019-06-07T02:51:41.345Z,74.97
2019-06-07T02:54:08.405Z,74.83
2019-06-07T02:56:48.860Z,74.79
2019-06-07T02:59:03.768Z,74.74
2019-06-07T03:01:32.439Z,74.93
2019-06-07T03:03:59.791Z,74.07
2019-06-07T03:06:29.865Z,73.70
2019-06-07T03:08:55.406Z,73.74
2019-06-07T03:11:22.103Z,73.62
2019-06-07T03:13:48.792Z,73.51
2019-06-07T03:16:26.195Z,73.56
2019-06-07T03:19:02.779Z,73.60
2019-06-07T03:21:31.322Z,73.78
2019-06-07T03:23:58.531Z,73.45
2019-06-07T03:26:25.334Z,73.49
2019-06-07T03:28:53.192Z,73.91
2019-06-07T03:31:19.884Z,73.97
2019-06-07T03:33:46.596Z,72.87
2019-06-07T03:36:23.703Z,73.02
2019-06-07T03:38:41.895Z,73.81
2019-06-07T03:41:08.608Z,74.07
2019-06-07T03:43:38.685Z,73.76
2019-06-07T03:46:04.257Z,73.64
2019-06-07T03:48:32.959Z,73.32
2019-06-07T03:51:04.658Z,73.39
2019-06-07T03:53:29.689Z,73.22
2019-06-07T03:55:56.828Z,73.18
2019-06-07T03:58:34.674Z,73.54
2019-06-07T04:00:52.505Z,73.59
2019-06-07T04:03:33.751Z,73.59
2019-06-07T04:05:48.935Z,73.61
2019-06-07T04:08:15.717Z,73.74
2019-06-07T04:10:58.435Z,73.77
2019-06-07T04:13:11.172Z,73.80
2019-06-07T04:15:40.940Z,73.64
2019-06-07T04:18:06.565Z,73.77
2019-06-07T04:20:35.725Z,73.75
2019-06-07T04:23:01.944Z,74.06
2019-06-07T04:25:29.087Z,74.65
2019-06-07T04:27:57.247Z,74.97
2019-06-07T04:30:41.796Z,75.45
2019-06-07T04:33:09.845Z,75.75
2019-06-07T04:35:40.000Z,76.11
2019-06-07T04:38:06.731Z,76.76
2019-06-07T04:40:34.346Z,76.62
2019-06-07T04:43:02.069Z,76.50
2019-06-07T04:45:40.046Z,76.78
2019-06-07T04:47:58.167Z,76.96
2019-06-07T04:50:24.867Z,76.80
2019-06-07T04:52:51.863Z,76.42
2019-06-07T04:55:18.584Z,76.55
2019-06-07T04:57:45.444Z,76.74
2019-06-07T05:00:46.175Z,76.70
2019-06-07T05:02:43.232Z,76.81
2019-06-07T05:05:09.518Z,76.50
2019-06-07T05:07:37.892Z,76.70
2019-06-07T05:10:04.842Z,76.78
2019-06-07T05:12:32.706Z,76.78
2019-06-07T05:15:00.152Z,76.47
2019-06-07T05:17:26.866Z,76.70
2019-06-07T05:19:53.557Z,76.63
2019-06-07T05:22:20.254Z,76.47
2019-06-07T05:24:47.270Z,77.11
2019-06-07T05:27:14.063Z,77.55
2019-06-07T05:29:43.797Z,77.42
2019-06-07T05:32:09.518Z,77.83
2019-06-07T05:34:36.941Z,77.47
2019-06-07T05:37:11.759Z,77.30
2019-06-07T05:39:36.857Z,76.78
2019-06-07T05:42:03.141Z,76.62
2019-06-07T05:44:29.829Z,76.95
2019-06-07T05:46:56.521Z,76.61
2019-06-07T05:49:23.256Z,75.68
2019-06-07T05:51:49.961Z,75.56
2019-06-07T05:54:16.697Z,75.49
2019-06-07T05:56:45.451Z,75.49
2019-06-07T05:59:12.069Z,75.22
2019-06-07T06:01:47.668Z,75.39
2019-06-07T06:04:07.413Z,74.95
2019-06-07T06:06:34.173Z,74.65
2019-06-07T06:09:13.315Z,74.08
2019-06-07T06:11:46.800Z,73.81
2019-06-07T06:14:07.435Z,73.25
2019-06-07T06:16:26.955Z,73.29
2019-06-07T06:18:53.722Z,72.94
2019-06-07T06:21:20.722Z,72.51
2019-06-07T06:23:48.838Z,71.79
2019-06-07T06:26:16.551Z,71.35
2019-06-07T06:28:45.271Z,70.23
2019-06-07T06:31:11.888Z,69.17
2019-06-07T06:33:39.616Z,68.52
2019-06-07T06:36:06.591Z,68.33
2019-06-07T06:38:33.653Z,67.89
2019-06-07T06:41:15.158Z,67.34
2019-06-07T06:43:29.995Z,66.97
2019-06-07T06:45:56.817Z,66.13
2019-06-07T06:48:23.579Z,65.72
2019-06-07T06:50:52.532Z,65.86
2019-06-07T06:53:19.116Z,65.38
2019-06-07T06:55:48.451Z,64.65
2019-06-07T06:58:15.067Z,63.63
2019-06-07T07:00:58.761Z,63.46
2019-06-07T07:03:56.611Z,62.88
2019-06-07T07:05:48.658Z,62.70
2019-06-07T07:08:13.462Z,62.49
2019-06-07T07:10:42.767Z,62.24
2019-06-07T07:13:10.076Z,62.31
2019-06-07T07:15:36.828Z,62.38
2019-06-07T07:18:08.773Z,62.04
2019-06-07T07:20:32.599Z,61.62
2019-06-07T07:22:59.418Z,61.44
2019-06-07T07:25:26.170Z,61.01
2019-06-07T07:27:55.286Z,60.96
2019-06-07T07:30:37.652Z,60.25
2019-06-07T07:33:06.443Z,60.28
2019-06-07T07:35:33.390Z,59.91
2019-06-07T07:38:00.310Z,60.23
2019-06-07T07:42:56.766Z,60.24
2019-06-07T07:45:23.757Z,59.22
2019-06-07T07:48:08.187Z,58.78
2019-06-07T07:50:20.630Z,58.89
2019-06-07T07:52:49.074Z,58.50
2019-06-07T07:55:15.947Z,58.44
2019-06-07T07:57:42.708Z,58.21
2019-06-07T08:00:48.623Z,58.10
2019-06-07T08:02:38.038Z,57.91
2019-06-07T08:07:33.906Z,57.25
2019-06-07T08:10:03.884Z,57.01
2019-06-07T08:12:29.772Z,56.75
2019-06-07T08:15:00.346Z,56.94
2019-06-07T08:17:25.138Z,56.38
2019-06-07T08:19:54.309Z,56.11
2019-06-07T08:22:20.749Z,55.87
2019-06-07T08:24:50.502Z,55.74
2019-06-07T08:27:26.077Z,55.90
2019-06-07T08:30:00.595Z,55.93
2019-06-07T08:32:14.048Z,55.17
2019-06-07T08:34:40.860Z,54.66
2019-06-07T08:37:07.555Z,54.67
2019-06-07T08:39:34.588Z,54.60
2019-06-07T08:42:15.230Z,54.37
2019-06-07T08:44:32.656Z,53.56
2019-06-07T08:47:16.731Z,54.39
2019-06-07T08:49:28.441Z,53.98
2019-06-07T08:52:04.572Z,53.96
2019-06-07T08:54:23.853Z,53.27
2019-06-07T08:56:53.701Z,53.35
2019-06-07T08:59:21.094Z,53.21
2019-06-07T09:01:49.867Z,52.93
2019-06-07T09:04:16.591Z,52.94
2019-06-07T09:09:12.244Z,52.57
2019-06-07T09:11:38.970Z,52.05
2019-06-07T09:14:09.020Z,52.22
2019-06-07T09:16:34.421Z,51.97
2019-06-07T09:19:06.717Z,51.73
2019-06-07T09:21:30.078Z,51.71
2019-06-07T09:24:00.320Z,51.22
2019-06-07T09:26:25.664Z,51.41
2019-06-07T09:28:52.353Z,50.77
2019-06-07T09:31:19.092Z,51.01
2019-06-07T09:33:45.814Z,51.07
2019-06-07T09:36:13.523Z,50.11
2019-06-07T09:38:40.738Z,50.11
2019-06-07T09:41:08.110Z,50.02
2019-06-07T09:46:11.837Z,50.22
2019-06-07T09:49:10.134Z,49.48
2019-06-07T09:51:09.547Z,49.71
2019-06-07T09:53:31.152Z,49.46
2019-06-07T09:56:02.921Z,49.35
2019-06-07T10:00:55.416Z,49.06
2019-06-07T10:03:24.324Z,49.26
2019-06-07T10:05:50.995Z,48.26
2019-06-07T10:09:26.223Z,49.07
2019-06-07T10:10:46.389Z,47.87
2019-06-07T10:13:13.066Z,48.28
2019-06-07T10:15:39.777Z,48.42
2019-06-07T10:18:07.126Z,47.65
2019-06-07T10:20:34.024Z,47.79
2019-06-07T10:23:01.629Z,46.17
2019-06-07T10:25:28.692Z,45.94
2019-06-07T10:27:55.779Z,45.80
2019-06-07T10:30:22.602Z,45.89
2019-06-07T10:32:52.140Z,46.13
2019-06-07T10:35:17.944Z,45.83
2019-06-07T10:37:44.991Z,45.28
2019-06-07T10:40:11.749Z,46.76
2019-06-07T10:42:38.451Z,46.08
2019-06-07T10:45:06.605Z,45.09
2019-06-07T10:47:34.103Z,45.78
2019-06-07T10:50:01.910Z,45.14
2019-06-07T10:52:28.799Z,44.52
2019-06-07T10:54:55.481Z,43.81
2019-06-07T10:57:22.252Z,44.06
2019-06-07T10:59:48.982Z,43.81
2019-06-07T11:02:15.655Z,44.40
2019-06-07T11:04:42.691Z,44.15
2019-06-07T11:07:10.086Z,43.57
2019-06-07T11:09:37.208Z,43.29
2019-06-07T11:12:04.368Z,43.34
2019-06-07T11:14:31.322Z,42.80
2019-06-07T11:16:58.076Z,42.13
2019-06-07T11:19:24.785Z,43.12
2019-06-07T11:21:51.620Z,42.68
2019-06-07T11:24:23.772Z,41.64
2019-06-07T11:26:47.049Z,41.28
2019-06-07T11:29:15.053Z,41.55
2019-06-07T11:31:41.938Z,41.97
2019-06-07T11:34:10.237Z,40.23
2019-06-07T11:36:37.522Z,39.91
2019-06-07T11:39:06.496Z,40.25
2019-06-07T11:41:33.219Z,40.78
2019-06-07T11:44:00.094Z,40.22
2019-06-07T11:46:27.005Z,39.07
2019-06-07T11:48:53.724Z,39.03
2019-06-07T11:51:20.548Z,39.17
2019-06-07T11:53:47.734Z,38.74
2019-06-07T11:56:16.002Z,37.99
2019-06-07T11:58:42.915Z,37.77
2019-06-07T12:01:09.778Z,37.77
2019-06-07T12:03:37.120Z,37.18
2019-06-07T12:06:03.836Z,37.93
2019-06-07T12:08:30.652Z,37.61
2019-06-07T12:10:57.375Z,36.76
2019-06-07T12:13:26.865Z,35.90
2019-06-07T12:15:54.236Z,35.38
2019-06-07T12:18:20.991Z,36.23
2019-06-07T12:20:47.687Z,36.32
2019-06-07T12:23:15.978Z,36.10
2019-06-07T12:25:43.375Z,36.16
2019-06-07T12:28:10.850Z,35.58
2019-06-07T12:30:38.007Z,35.13
2019-06-07T12:33:05.031Z,36.08
2019-06-07T12:35:32.175Z,35.58
2019-06-07T12:37:59.293Z,34.69
2019-06-07T12:40:31.900Z,34.77
2019-06-07T12:42:55.963Z,34.85
2019-06-07T12:45:43.761Z,33.81
2019-06-07T12:47:52.329Z,34.55
2019-06-07T12:50:21.670Z,34.50
2019-06-07T12:52:49.762Z,34.71
2019-06-07T12:55:18.112Z,34.24
2019-06-07T12:57:46.532Z,34.38
2019-06-07T13:00:14.284Z,34.72
2019-06-07T13:02:41.547Z,34.88
2019-06-07T13:05:08.273Z,34.76
2019-06-07T13:07:35.051Z,33.71
2019-06-07T13:10:01.799Z,33.64
2019-06-07T13:12:28.587Z,35.02
2019-06-07T13:14:55.509Z,34.92
2019-06-07T13:17:22.345Z,35.19
2019-06-07T13:19:49.314Z,34.91
2019-06-07T13:22:16.215Z,35.31
2019-06-07T13:24:42.889Z,35.19
2019-06-07T13:27:09.749Z,34.62
2019-06-07T13:29:36.790Z,34.82
2019-06-07T13:32:03.535Z,34.19
2019-06-07T13:34:30.222Z,34.05
2019-06-07T13:36:56.908Z,34.25
2019-06-07T13:39:27.535Z,34.66
2019-06-07T13:41:52.436Z,34.22
2019-06-07T13:44:20.865Z,33.96
2019-06-07T13:46:47.855Z,34.21
2019-06-07T13:49:14.579Z,34.62
2019-06-07T13:51:41.461Z,33.28
2019-06-07T13:54:08.170Z,33.10
2019-06-07T13:56:34.893Z,33.17
2019-06-07T13:59:01.644Z,32.66
2019-06-07T14:01:29.014Z,33.23
2019-06-07T14:03:56.172Z,33.25
2019-06-07T14:06:23.449Z,33.04
2019-06-07T14:08:50.301Z,32.78
2019-06-07T14:11:17.531Z,32.54
2019-06-07T14:13:44.213Z,32.64
2019-06-07T14:16:11.093Z,32.69
2019-06-07T14:18:37.771Z,31.01
2019-06-07T14:21:04.482Z,29.27
2019-06-07T14:23:47.453Z,29.59
2019-06-07T14:26:00.577Z,30.56
2019-06-07T14:28:31.832Z,30.62
2019-06-07T14:30:56.557Z,30.96
2019-06-07T14:33:26.131Z,31.73
2019-06-07T14:35:51.919Z,33.07
2019-06-07T14:38:18.682Z,33.60
2019-06-07T14:40:47.818Z,34.31
2019-06-07T14:43:14.783Z,34.27
2019-06-07T14:45:41.984Z,35.54
2019-06-07T14:48:08.727Z,38.08
2019-06-07T14:50:35.467Z,41.12
2019-06-07T14:53:02.348Z,40.85
2019-06-07T14:55:32.964Z,43.16
2019-06-07T14:58:00.250Z,47.93
2019-06-07T15:00:38.974Z,46.84
2019-06-07T15:03:05.732Z,46.58
2019-06-07T15:05:32.868Z,48.41
2019-06-07T15:07:59.666Z,44.63
2019-06-07T15:10:26.697Z,46.21
2019-06-07T15:12:53.810Z,50.72
2019-06-07T15:15:20.649Z,42.93
2019-06-07T15:17:47.477Z,41.68
2019-06-07T15:20:14.317Z,39.35
2019-06-07T15:22:41.401Z,40.06
2019-06-07T15:25:08.133Z,39.74
2019-06-07T15:27:35.343Z,39.52
2019-06-07T15:30:10.052Z,37.89
2019-06-07T15:32:32.683Z,37.51
2019-06-07T15:34:59.766Z,37.86
2019-06-07T15:37:26.548Z,37.83
2019-06-07T15:39:53.282Z,36.55
2019-06-07T15:42:20.126Z,34.78
2019-06-07T15:44:46.831Z,33.37
2019-06-07T15:47:13.688Z,33.45
2019-06-07T15:49:40.440Z,37.14
2019-06-07T15:52:07.155Z,40.01
2019-06-07T15:54:34.390Z,39.51
2019-06-07T15:57:01.213Z,40.72
2019-06-07T15:59:28.037Z,41.53
2019-06-07T16:01:54.869Z,42.67
2019-06-07T16:04:21.590Z,42.52
2019-06-07T16:06:48.328Z,42.95
2019-06-07T16:09:15.035Z,42.97
2019-06-07T16:11:43.470Z,44.19
2019-06-07T16:14:10.542Z,45.02
2019-06-07T16:16:37.282Z,45.23
2019-06-07T16:19:05.669Z,45.08
2019-06-07T16:21:35.270Z,45.17
2019-06-07T16:24:02.152Z,44.58
2019-06-07T16:26:28.865Z,44.81
2019-06-07T16:28:57.334Z,45.26
2019-06-07T16:31:25.410Z,45.23
2019-06-07T16:33:54.647Z,44.54
2019-06-07T16:36:21.456Z,44.86
2019-06-07T16:38:49.387Z,44.92
2019-06-07T16:41:16.092Z,44.67
2019-06-07T16:43:44.801Z,45.41
2019-06-07T16:46:11.811Z,45.81
2019-06-07T16:48:40.868Z,46.00
2019-06-07T16:51:07.869Z,47.16
2019-06-07T16:53:34.588Z,49.25
2019-06-07T16:56:01.326Z,52.49
2019-06-07T16:58:28.023Z,53.41
2019-06-07T17:00:54.808Z,54.23
2019-06-07T17:03:21.565Z,54.80
2019-06-07T17:05:50.481Z,55.85
2019-06-07T17:08:17.083Z,57.33
2019-06-07T17:10:44.248Z,58.56
2019-06-07T17:13:32.074Z,59.04
2019-06-07T17:15:45.265Z,59.46
2019-06-07T17:18:12.010Z,59.30
2019-06-07T17:20:39.125Z,59.53
2019-06-07T17:23:05.802Z,58.68
2019-06-07T17:25:32.555Z,59.19
2019-06-07T17:27:59.286Z,59.79
2019-06-07T17:30:25.979Z,58.22
2019-06-07T17:32:58.924Z,57.68
2019-06-07T17:35:21.770Z,57.60
2019-06-07T17:37:49.688Z,57.48
2019-06-07T17:40:17.208Z,57.05
2019-06-07T17:42:44.827Z,57.43
2019-06-07T17:45:11.595Z,57.44
2019-06-07T17:47:38.296Z,56.74
2019-06-07T17:50:05.238Z,57.93
2019-06-07T17:52:32.061Z,57.26
2019-06-07T17:54:58.784Z,55.86
2019-06-07T17:57:25.801Z,56.73
2019-06-07T18:00:27.068Z,56.61
2019-06-07T18:02:31.860Z,55.94
2019-06-07T18:04:58.577Z,56.40
2019-06-07T18:07:25.291Z,55.95
2019-06-07T18:09:53.658Z,57.48
2019-06-07T18:12:20.749Z,59.19
2019-06-07T18:14:47.970Z,59.81
2019-06-07T18:17:14.774Z,60.43
2019-06-07T18:19:41.510Z,60.56
2019-06-07T18:22:08.237Z,59.58
2019-06-07T18:24:35.045Z,60.64
2019-06-07T18:27:01.790Z,60.33
2019-06-07T18:29:28.518Z,60.59
2019-06-07T18:31:55.390Z,60.18
2019-06-07T18:34:23.654Z,60.78
2019-06-07T18:36:51.076Z,61.06
2019-06-07T18:39:21.511Z,63.94
2019-06-07T18:41:49.070Z,63.13
2019-06-07T18:44:21.750Z,62.86
2019-06-07T18:46:46.026Z,62.88
2019-06-07T18:49:12.982Z,63.65
2019-06-07T18:51:39.704Z,63.89
2019-06-07T18:54:06.452Z,65.88
2019-06-07T18:56:33.656Z,64.54
2019-06-07T18:59:02.357Z,65.34
2019-06-07T19:01:29.074Z,64.53
2019-06-07T19:03:56.213Z,64.35
2019-06-07T19:06:23.671Z,65.23
2019-06-07T19:08:54.750Z,64.40
2019-06-07T19:11:19.596Z,64.60
2019-06-07T19:13:46.880Z,64.38
2019-06-07T19:16:13.615Z,63.06
2019-06-07T19:18:40.506Z,63.85
2019-06-07T19:21:07.230Z,65.04
2019-06-07T19:23:34.553Z,64.16
2019-06-07T19:26:01.322Z,64.62
2019-06-07T19:28:28.098Z,64.25
2019-06-07T19:30:55.144Z,64.82
2019-06-07T19:33:22.190Z,64.94
2019-06-07T19:35:48.947Z,64.98
2019-06-07T19:38:17.106Z,64.62
2019-06-07T19:40:44.204Z,64.94
2019-06-07T19:43:10.943Z,65.06
2019-06-07T19:45:37.955Z,64.63
2019-06-07T19:48:04.708Z,64.76
2019-06-07T19:50:31.838Z,64.88
2019-06-07T19:52:59.212Z,65.69
2019-06-07T19:55:27.596Z,65.99
2019-06-07T19:57:59.888Z,67.06
2019-06-07T20:00:26.638Z,66.10
2019-06-07T20:02:53.701Z,67.01
2019-06-07T20:05:20.511Z,65.97
2019-06-07T20:07:47.241Z,65.54
2019-06-07T20:10:14.026Z,65.47
2019-06-07T20:12:40.792Z,64.49
2019-06-07T20:15:27.027Z,65.10
2019-06-07T20:17:36.158Z,64.57
2019-06-07T20:20:04.648Z,64.61
2019-06-07T20:22:32.028Z,64.77
2019-06-07T20:24:58.871Z,65.28
2019-06-07T20:27:25.595Z,65.22
2019-06-07T20:29:52.342Z,65.65
2019-06-07T20:32:19.080Z,65.89
2019-06-07T20:34:45.799Z,64.84
2019-06-07T20:37:12.554Z,64.08
2019-06-07T20:39:39.292Z,64.29
2019-06-07T20:42:06.116Z,64.51
2019-06-07T20:44:32.844Z,64.23
2019-06-07T20:46:59.984Z,64.88
2019-06-07T20:49:26.911Z,65.18
2019-06-07T20:51:53.638Z,65.10
2019-06-07T20:54:20.399Z,65.60
2019-06-07T20:56:47.208Z,65.04
2019-06-07T20:59:13.961Z,64.51
2019-06-07T21:01:42.820Z,63.87
2019-06-07T21:04:09.763Z,64.01
2019-06-07T21:06:36.480Z,63.82
2019-06-07T21:09:06.003Z,63.95
2019-06-07T21:11:32.730Z,63.31
2019-06-07T21:14:02.028Z,62.93
2019-06-07T21:16:28.810Z,62.70
2019-06-07T21:18:55.552Z,63.27
2019-06-07T21:21:22.244Z,63.41
2019-06-07T21:23:49.035Z,62.77
2019-06-07T21:26:15.763Z,63.40
2019-06-07T21:28:42.586Z,63.66
2019-06-07T21:31:10.478Z,63.66
2019-06-07T21:33:39.713Z,63.42
2019-06-07T21:36:07.792Z,63.52
2019-06-07T21:38:35.078Z,63.52
2019-06-07T21:41:02.163Z,62.20
2019-06-07T21:43:29.042Z,62.34
2019-06-07T21:46:05.400Z,61.89
2019-06-07T21:48:24.901Z,61.79
2019-06-07T21:50:51.947Z,61.21
2019-06-07T21:53:18.780Z,61.32
2019-06-07T21:55:52.594Z,61.04
2019-06-07T21:58:19.738Z,61.42
2019-06-07T22:01:12.086Z,61.58
2019-06-07T22:03:39.172Z,62.71
2019-06-07T22:06:07.616Z,63.02
2019-06-07T22:08:34.636Z,62.73
2019-06-07T22:11:08.189Z,62.63
2019-06-07T22:13:35.212Z,61.88
2019-06-07T22:16:02.433Z,61.43
2019-06-07T22:18:29.286Z,61.28
2019-06-07T22:20:55.999Z,61.03
2019-06-07T22:23:22.736Z,60.63
2019-06-07T22:25:49.833Z,60.60
2019-06-07T22:28:16.672Z,60.88
2019-06-07T22:30:43.415Z,60.47
2019-06-07T22:33:10.639Z,60.64
2019-06-07T22:35:37.554Z,60.63
2019-06-07T22:38:05.958Z,60.23
2019-06-07T22:40:33.064Z,60.18
2019-06-07T22:43:00.003Z,60.08
2019-06-07T22:45:29.817Z,59.66
2019-06-07T22:47:56.539Z,59.70
2019-06-07T22:50:23.259Z,59.79
2019-06-07T22:52:49.981Z,59.39
2019-06-07T22:55:16.670Z,59.48
2019-06-07T22:57:56.422Z,59.81
2019-06-07T23:00:23.843Z,59.59
2019-06-07T23:02:50.590Z,59.66
2019-06-07T23:05:17.419Z,59.40
2019-06-07T23:07:44.109Z,59.32
2019-06-07T23:10:11.310Z,59.30
2019-06-07T23:12:38.169Z,59.34
2019-06-07T23:15:05.201Z,59.49
2019-06-07T23:17:31.928Z,59.39
2019-06-07T23:19:58.631Z,59.60
2019-06-07T23:22:25.466Z,59.54
2019-06-07T23:24:52.200Z,59.41
2019-06-07T23:27:26.979Z,59.10
2019-06-07T23:30:08.288Z,58.85
2019-06-07T23:32:38.774Z,58.95
2019-06-07T23:37:53.827Z,58.66
2019-06-07T23:40:21.570Z,58.88
2019-06-07T23:42:48.427Z,58.61
2019-06-07T23:45:15.526Z,58.66
2019-06-07T23:47:42.373Z,58.52
2019-06-07T23:50:09.511Z,58.87
2019-06-07T23:52:36.224Z,58.64
2019-06-07T23:55:03.405Z,58.67
2019-06-07T23:57:30.095Z,58.59
2019-06-07T23:59:56.797Z,58.45
